Flight Track Log - Related Links

Times and Time Zones

All times are in EDT time to prevent confusion due to time zone crossing. See the CTL16 flight status page for this flight to view local times or setup timezone preferences in your user account.


Time Position Orientation Groundspeed Altitude Reporting Facility
EDT Latitude Longitude Course Direction KTS MPH feet Rate Location/Type
Mon 09:05:45 PM 39.3833 -84.4667 38° Northeast 127 146 1,600  Level Cincinnati TRACON
Mon 09:06:45 PM 39.4000 -84.4500 38° Northeast 133 153 2,400 722 Climbing Cincinnati TRACON
Mon 09:07:33 PM 39.4217 -84.4192 48° Northeast 131 151 2,900 550 Climbing Indianapolis Center
Mon 09:08:34 PM 39.4514 -84.3847 42° Northeast 144 166 3,400 443 Climbing Indianapolis Center
Mon 09:09:35 PM 39.4819 -84.3492 42° Northeast 144 166 3,800 439 Climbing Indianapolis Center
Mon 09:10:37 PM 39.5111 -84.3086 47° Northeast 148 170 4,300 390 Climbing Indianapolis Center
Mon 09:11:38 PM 39.5408 -84.2683 46° Northeast 151 174 4,600 344 Climbing Indianapolis Center
Mon 09:12:39 PM 39.5700 -84.2283 47° Northeast 152 175 5,000 246 Climbing Indianapolis Center
Mon 09:13:40 PM 39.6028 -84.1906 42° Northeast 153 176 5,100 63 Climbing Indianapolis Center
Mon 09:14:14 PM 39.6239 -84.1656 42° Northeast 164 189 5,100 -64 Level Indianapolis Center
Mon 09:15:14 PM 39.6556 -84.1250 45° Northeast 162 186 5,000  Descending Indianapolis Center
Mon 09:16:09 PM 39.6844 -84.0894 43° Northeast 161 185 5,100  Climbing Indianapolis Center
Mon 09:16:43 PM 39.7028 -84.0678 42° Northeast 162 186 5,000  Descending Indianapolis Center
Mon 09:17:45 PM 39.7356 -84.0269 44° Northeast 163 188 5,100 65 Climbing Indianapolis Center
Mon 09:18:16 PM 39.7547 -84.0008 46° Northeast 161 185 5,100  Level Indianapolis Center
Mon 09:18:46 PM 39.7669 -83.9842 46° Northeast 162 186 5,100  Level Indianapolis Center
Mon 09:19:47 PM 39.8006 -83.9425 44° Northeast 163 188 5,100 -49 Level Indianapolis Center
Mon 09:20:48 PM 39.8336 -83.8989 45° Northeast 166 191 5,000  Descending Indianapolis Center
Mon 09:21:49 PM 39.8672 -83.8564 44° Northeast 166 191 5,100  Climbing Indianapolis Center
Mon 09:22:50 PM 39.9003 -83.8147 44° Northeast 165 190 5,000 -49 Descending Indianapolis Center
Mon 09:23:51 PM 39.9333 -83.7714 45° Northeast 165 190 5,000  Level Indianapolis Center
Mon 09:24:52 PM 39.9658 -83.7283 45° Northeast 165 190 5,000 49 Level Indianapolis Center
Mon 09:25:53 PM 39.9989 -83.6867 44° Northeast 164 189 5,100  Climbing Indianapolis Center
Mon 09:27:10 PM 40.0433 -83.6275 46° Northeast 165 190 5,000  Descending Indianapolis Center
Mon 09:27:56 PM 40.0639 -83.6017 44° Northeast 163 188 5,100  Climbing Indianapolis Center
Mon 09:28:57 PM 40.0961 -83.5606 44° Northeast 161 185 5,000 -49 Descending Indianapolis Center
Mon 09:29:58 PM 40.1281 -83.5192 45° Northeast 160 184 5,000  Level Indianapolis Center
Mon 09:30:59 PM 40.1661 -83.4708 44° Northeast 161 185 5,000 49 Level Indianapolis Center
Mon 09:32:00 PM 40.1994 -83.4281 44° Northeast 163 188 5,100 49 Climbing Indianapolis Center
Mon 09:33:01 PM 40.2331 -83.3839 45° Northeast 166 191 5,100  Level Indianapolis Center
Mon 09:34:03 PM 40.2678 -83.3406 44° Northeast 169 194 5,100 -49 Level Indianapolis Center
Mon 09:35:04 PM 40.3017 -83.2964 45° Northeast 170 196 5,000 -49 Descending Indianapolis Center
Mon 09:36:05 PM 40.3361 -83.2539 43° Northeast 169 194 5,000 49 Level Indianapolis Center
Mon 09:37:06 PM 40.3694 -83.2106 45° Northeast 168 193 5,100  Climbing Indianapolis Center
Mon 09:38:07 PM 40.4028 -83.1669 45° Northeast 168 193 5,000 -49 Descending Indianapolis Center
Mon 09:39:08 PM 40.4361 -83.1236 45° Northeast 168 193 5,000  Level Indianapolis Center
Mon 09:40:10 PM 40.4703 -83.0817 43° Northeast 167 192 5,000  Level Indianapolis Center
Mon 09:41:11 PM 40.5031 -83.0386 45° Northeast 166 191 5,000  Level Indianapolis Center
Mon 09:42:12 PM 40.5353 -82.9953 46° Northeast 167 192 5,000  Level Indianapolis Center
Mon 09:43:13 PM 40.5669 -82.9519 46° Northeast 165 190 5,000  Level Indianapolis Center
Mon 09:44:14 PM 40.5992 -82.9072 46° Northeast 167 192 5,000  Level Indianapolis Center
Mon 09:45:16 PM 40.6317 -82.8639 45° Northeast 166 191 5,000  Level Indianapolis Center
Mon 09:46:17 PM 40.6636 -82.8194 47° Northeast 166 191 5,000 -49 Level Indianapolis Center
Mon 09:47:18 PM 40.6953 -82.7750 47° Northeast 165 190 4,900  Descending Indianapolis Center
Mon 09:48:19 PM 40.7286 -82.7331 44° Northeast 164 189 5,000 98 Climbing Indianapolis Center

Login

Don't have an account? Register now (free) for customized features, flight alerts, and more!